createdAt,value
2023-02-05T00:00:30.336Z,56.59
2023-02-05T00:02:58.363Z,56.53
2023-02-05T00:05:26.442Z,56.59
2023-02-05T00:07:55.838Z,56.54
2023-02-05T00:10:23.922Z,56.43
2023-02-05T00:12:51.909Z,56.65
2023-02-05T00:15:20.109Z,56.26
2023-02-05T00:17:48.124Z,56.22
2023-02-05T00:20:16.143Z,56.03
2023-02-05T00:22:44.274Z,56.27
2023-02-05T00:25:13.716Z,56.10
2023-02-05T00:27:41.723Z,55.89
2023-02-05T00:30:11.054Z,55.89
2023-02-05T00:32:39.002Z,55.83
2023-02-05T00:35:07.307Z,55.83
2023-02-05T00:37:35.370Z,55.52
2023-02-05T00:40:03.538Z,55.76
2023-02-05T00:42:33.219Z,55.70
2023-02-05T00:45:01.398Z,55.66
2023-02-05T00:47:29.462Z,55.56
2023-02-05T00:49:57.857Z,55.47
2023-02-05T00:52:26.101Z,55.57
2023-02-05T00:54:54.874Z,55.53
2023-02-05T00:57:24.878Z,55.51
2023-02-05T00:59:54.615Z,55.36
2023-02-05T01:02:24.352Z,55.35
2023-02-05T01:04:53.294Z,55.50
2023-02-05T01:07:21.682Z,55.40
2023-02-05T01:09:49.973Z,55.28
2023-02-05T01:12:18.192Z,55.09
2023-02-05T01:14:46.372Z,55.01
2023-02-05T01:17:17.132Z,55.22
2023-02-05T01:19:45.097Z,55.07
2023-02-05T01:22:14.395Z,54.98
2023-02-05T01:24:42.343Z,54.88
2023-02-05T01:27:10.472Z,55.02
2023-02-05T01:29:41.790Z,54.78
2023-02-05T01:32:10.498Z,54.88
2023-02-05T01:34:40.058Z,54.74
2023-02-05T01:37:08.151Z,54.74
2023-02-05T01:39:37.513Z,54.48
2023-02-05T01:42:08.099Z,54.42
2023-02-05T01:44:36.166Z,54.22
2023-02-05T01:47:04.402Z,54.33
2023-02-05T01:49:38.950Z,54.13
2023-02-05T01:52:12.075Z,54.31
2023-02-05T01:54:45.944Z,53.78
2023-02-05T01:57:19.571Z,53.76
2023-02-05T01:59:48.840Z,53.90
2023-02-05T02:02:19.015Z,54.14
2023-02-05T02:04:50.470Z,53.79
2023-02-05T02:07:22.625Z,53.86
2023-02-05T02:09:51.678Z,54.05
2023-02-05T02:12:23.749Z,53.69
2023-02-05T02:14:56.878Z,53.68
2023-02-05T02:17:27.390Z,53.40
2023-02-05T02:20:02.900Z,53.20
2023-02-05T02:23:08.213Z,53.85
2023-02-05T02:26:11.643Z,53.43
2023-02-05T02:28:46.955Z,53.18
2023-02-05T02:31:20.343Z,53.43
2023-02-05T02:33:55.053Z,53.25
2023-02-05T02:36:28.004Z,53.24
2023-02-05T02:39:02.882Z,53.13
2023-02-05T02:41:38.328Z,53.33
2023-02-05T02:44:13.025Z,53.26
2023-02-05T02:46:45.235Z,53.08
2023-02-05T02:49:16.762Z,53.56
2023-02-05T02:51:46.664Z,53.50
2023-02-05T02:54:17.991Z,53.59
2023-02-05T02:56:49.042Z,53.57
2023-02-05T02:59:21.538Z,53.11
2023-02-05T03:01:54.052Z,53.30
2023-02-05T03:04:30.128Z,53.85
2023-02-05T03:07:05.577Z,53.77
2023-02-05T03:09:40.844Z,53.83
2023-02-05T03:12:09.098Z,53.95
2023-02-05T03:14:39.071Z,54.10
2023-02-05T03:17:07.257Z,54.28
2023-02-05T03:19:35.363Z,54.17
2023-02-05T03:22:05.760Z,53.96
2023-02-05T03:24:33.784Z,54.13
2023-02-05T03:27:01.930Z,54.28
2023-02-05T03:29:32.618Z,54.48
2023-02-05T03:32:15.239Z,54.53
2023-02-05T03:34:52.929Z,54.71
2023-02-05T03:37:29.786Z,55.12
2023-02-05T03:40:09.426Z,55.07
2023-02-05T03:42:46.717Z,55.55
2023-02-05T03:45:28.827Z,55.47
2023-02-05T03:48:13.210Z,55.75
2023-02-05T03:50:47.930Z,55.39
2023-02-05T03:53:24.038Z,55.65
2023-02-05T03:55:56.979Z,55.62
2023-02-05T03:58:29.423Z,56.05
2023-02-05T04:00:57.611Z,56.06
2023-02-05T04:03:27.261Z,56.11
2023-02-05T04:05:56.307Z,56.13
2023-02-05T04:08:24.293Z,56.15
2023-02-05T04:10:52.234Z,56.17
2023-02-05T04:13:20.363Z,55.91
2023-02-05T04:15:49.934Z,55.83
2023-02-05T04:18:18.115Z,56.09
2023-02-05T04:20:47.646Z,56.01
2023-02-05T04:23:15.650Z,56.28
2023-02-05T04:25:43.673Z,56.07
2023-02-05T04:28:12.446Z,56.20
2023-02-05T04:30:40.904Z,56.10
2023-02-05T04:33:08.774Z,56.37
2023-02-05T04:35:36.958Z,56.14
2023-02-05T04:38:06.593Z,56.17
2023-02-05T04:40:34.723Z,56.71
2023-02-05T04:43:02.760Z,56.50
2023-02-05T04:45:33.631Z,56.70
2023-02-05T04:48:02.302Z,57.02
2023-02-05T04:50:30.642Z,56.69
2023-02-05T04:52:58.593Z,56.61
2023-02-05T04:55:28.032Z,56.55
2023-02-05T04:57:56.059Z,56.33
2023-02-05T05:00:24.678Z,56.37
2023-02-05T05:02:52.886Z,56.25
2023-02-05T05:05:21.842Z,56.39
2023-02-05T05:07:50.096Z,56.32
2023-02-05T05:10:18.436Z,56.25
2023-02-05T05:12:47.983Z,56.26
2023-02-05T05:15:15.978Z,56.19
2023-02-05T05:17:43.951Z,55.70
2023-02-05T05:20:12.800Z,56.11
2023-02-05T05:22:40.832Z,55.93
2023-02-05T05:25:08.929Z,55.44
2023-02-05T05:27:37.012Z,55.47
2023-02-05T05:30:07.121Z,55.53
2023-02-05T05:32:35.146Z,55.30
2023-02-05T05:35:03.213Z,55.09
2023-02-05T05:37:31.391Z,55.11
2023-02-05T05:40:16.568Z,54.97
2023-02-05T05:43:01.794Z,55.08
2023-02-05T05:45:31.193Z,55.04
2023-02-05T05:47:59.222Z,55.28
2023-02-05T05:50:27.216Z,55.11
2023-02-05T05:52:55.259Z,54.80
2023-02-05T05:55:23.223Z,55.06
2023-02-05T05:57:51.161Z,54.76
2023-02-05T06:00:19.849Z,54.83
2023-02-05T06:02:49.366Z,54.89
2023-02-05T06:05:17.463Z,54.87
2023-02-05T06:07:45.479Z,54.98
2023-02-05T06:10:14.004Z,54.77
2023-02-05T06:12:42.019Z,54.90
2023-02-05T06:15:10.371Z,54.63
2023-02-05T06:17:38.513Z,54.99
2023-02-05T06:20:08.515Z,54.96
2023-02-05T06:22:36.864Z,54.91
2023-02-05T06:25:06.019Z,54.79
2023-02-05T06:27:34.606Z,54.85
2023-02-05T06:30:02.842Z,54.79
2023-02-05T06:32:30.861Z,54.80
2023-02-05T06:34:58.868Z,54.80
2023-02-05T06:37:46.137Z,54.88
2023-02-05T06:40:18.249Z,54.56
2023-02-05T06:42:46.487Z,54.64
2023-02-05T06:45:14.748Z,54.92
2023-02-05T06:47:42.764Z,54.49
2023-02-05T06:50:11.551Z,54.53
2023-02-05T06:52:41.016Z,54.80
2023-02-05T06:55:09.349Z,54.55
2023-02-05T06:57:37.460Z,54.48
2023-02-05T07:00:06.817Z,54.40
2023-02-05T07:02:35.090Z,54.54
2023-02-05T07:05:03.381Z,54.06
2023-02-05T07:07:31.504Z,54.25
2023-02-05T07:10:01.606Z,54.24
2023-02-05T07:12:29.821Z,54.25
2023-02-05T07:14:57.972Z,54.47
2023-02-05T07:17:26.488Z,54.28
2023-02-05T07:19:54.888Z,54.44
2023-02-05T07:22:23.074Z,54.36
2023-02-05T07:24:51.159Z,53.87
2023-02-05T07:27:20.725Z,54.03
2023-02-05T07:29:50.201Z,54.03
2023-02-05T07:32:18.383Z,54.16
2023-02-05T07:34:46.392Z,53.94
2023-02-05T07:37:14.582Z,54.31
2023-02-05T07:39:43.013Z,54.04
2023-02-05T07:42:11.225Z,54.28
2023-02-05T07:44:40.752Z,53.93
2023-02-05T07:47:08.801Z,53.91
2023-02-05T07:49:37.236Z,53.85
2023-02-05T07:52:05.641Z,53.67
2023-02-05T07:54:33.943Z,54.09
2023-02-05T07:57:04.909Z,53.94
2023-02-05T07:59:34.660Z,53.76
2023-02-05T08:02:04.200Z,54.03
2023-02-05T08:04:33.545Z,53.98
2023-02-05T08:07:03.275Z,53.65
2023-02-05T08:09:31.432Z,53.56
2023-02-05T08:11:59.928Z,53.68
2023-02-05T08:14:27.915Z,53.87
2023-02-05T08:16:56.034Z,53.81
2023-02-05T08:19:26.735Z,53.55
2023-02-05T08:21:55.991Z,53.55
2023-02-05T08:24:24.873Z,53.45
2023-02-05T08:26:53.069Z,53.72
2023-02-05T08:29:21.192Z,53.96
2023-02-05T08:31:49.286Z,53.68
2023-02-05T08:34:18.296Z,53.82
2023-02-05T08:36:49.469Z,53.52
2023-02-05T08:39:17.553Z,53.81
2023-02-05T08:41:45.643Z,53.49
2023-02-05T08:44:13.617Z,53.90
2023-02-05T08:46:49.653Z,53.71
2023-02-05T08:49:20.923Z,53.79
2023-02-05T08:51:50.476Z,53.55
2023-02-05T08:54:18.764Z,53.54
2023-02-05T08:56:50.238Z,53.52
2023-02-05T08:59:18.602Z,53.20
2023-02-05T09:01:47.194Z,53.25
2023-02-05T09:04:15.841Z,53.14
2023-02-05T09:06:44.191Z,53.03
2023-02-05T09:09:14.604Z,52.94
2023-02-05T09:11:43.502Z,52.96
2023-02-05T09:14:11.567Z,52.75
2023-02-05T09:16:39.726Z,52.62
2023-02-05T09:19:08.550Z,52.85
2023-02-05T09:21:36.719Z,52.70
2023-02-05T09:24:05.151Z,52.71
2023-02-05T09:26:34.861Z,52.42
2023-02-05T09:29:02.907Z,52.27
2023-02-05T09:31:31.366Z,52.28
2023-02-05T09:33:59.620Z,52.02
2023-02-05T09:36:27.554Z,52.15
2023-02-05T09:39:11.921Z,51.93
2023-02-05T09:41:52.309Z,51.82
2023-02-05T09:44:36.070Z,51.96
2023-02-05T09:47:11.135Z,51.92
2023-02-05T09:49:48.487Z,51.70
2023-02-05T09:52:21.136Z,51.26
2023-02-05T09:54:54.040Z,51.04
2023-02-05T09:57:33.375Z,51.27
2023-02-05T10:00:01.820Z,51.12
2023-02-05T10:02:37.833Z,51.04
2023-02-05T10:05:14.416Z,50.88
2023-02-05T10:07:49.597Z,50.43
2023-02-05T10:10:25.499Z,50.21
2023-02-05T10:13:27.720Z,50.35
2023-02-05T10:16:23.453Z,49.90
2023-02-05T10:19:12.942Z,49.84
2023-02-05T10:21:57.355Z,49.87
2023-02-05T10:24:52.602Z,49.59
2023-02-05T10:27:25.506Z,49.43
2023-02-05T10:30:04.531Z,49.04
2023-02-05T10:32:47.991Z,49.15
2023-02-05T10:35:25.214Z,48.89
2023-02-05T10:37:57.581Z,48.50
2023-02-05T10:40:29.788Z,48.51
2023-02-05T10:43:04.128Z,48.18
2023-02-05T10:45:34.728Z,48.26
2023-02-05T10:48:27.324Z,47.89
2023-02-05T10:51:01.321Z,47.91
2023-02-05T10:53:30.844Z,47.99
2023-02-05T10:56:00.525Z,47.26
2023-02-05T10:58:41.604Z,47.38
2023-02-05T11:01:16.751Z,46.75
2023-02-05T11:03:54.903Z,46.99
2023-02-05T11:06:25.748Z,46.73
2023-02-05T11:08:54.035Z,46.82
2023-02-05T11:11:25.872Z,46.70
2023-02-05T11:13:58.293Z,46.38
2023-02-05T11:16:40.047Z,46.18
2023-02-05T11:19:21.236Z,46.12
2023-02-05T11:21:55.540Z,45.99
2023-02-05T11:24:27.074Z,45.98
2023-02-05T11:27:20.927Z,45.80
2023-02-05T11:29:49.077Z,45.92
2023-02-05T11:32:22.606Z,45.62
2023-02-05T11:34:51.112Z,45.61
2023-02-05T11:37:20.208Z,45.48
2023-02-05T11:39:55.009Z,44.89
2023-02-05T11:42:25.488Z,44.58
2023-02-05T11:44:56.127Z,44.63
2023-02-05T11:47:29.592Z,43.98
2023-02-05T11:49:58.419Z,44.16
2023-02-05T11:52:30.160Z,43.88
2023-02-05T11:54:58.395Z,43.55
2023-02-05T11:57:36.231Z,43.39
2023-02-05T12:00:21.298Z,43.42
2023-02-05T12:02:54.224Z,43.21
2023-02-05T12:05:27.660Z,42.70
2023-02-05T12:08:01.636Z,42.75
2023-02-05T12:10:38.025Z,42.68
2023-02-05T12:13:15.290Z,42.47
2023-02-05T12:15:54.138Z,42.21
2023-02-05T12:18:31.570Z,42.54
2023-02-05T12:21:12.621Z,41.83
2023-02-05T12:24:00.939Z,41.73
2023-02-05T12:26:35.140Z,41.54
2023-02-05T12:29:14.114Z,41.68
2023-02-05T12:31:54.989Z,41.60
2023-02-05T12:34:29.931Z,41.23
2023-02-05T12:37:22.034Z,41.10
2023-02-05T12:39:54.916Z,40.96
2023-02-05T12:42:33.045Z,40.78
2023-02-05T12:45:16.040Z,41.08
2023-02-05T12:47:56.441Z,40.47
2023-02-05T12:50:44.800Z,40.60
2023-02-05T12:53:38.919Z,40.46
2023-02-05T12:56:31.104Z,40.47
2023-02-05T12:59:03.034Z,40.35
2023-02-05T13:01:39.254Z,40.18
2023-02-05T13:04:11.014Z,40.07
2023-02-05T13:06:45.890Z,39.80
2023-02-05T13:09:20.961Z,39.97
2023-02-05T13:11:56.894Z,40.03
2023-02-05T13:14:29.440Z,39.45
2023-02-05T13:17:02.847Z,39.25
2023-02-05T13:19:34.912Z,39.14
2023-02-05T13:22:31.382Z,38.82
2023-02-05T13:25:27.322Z,38.88
2023-02-05T13:28:21.028Z,38.75
2023-02-05T13:30:54.016Z,38.60
2023-02-05T13:33:22.095Z,38.71
2023-02-05T13:36:04.736Z,38.15
2023-02-05T13:38:54.452Z,38.36
2023-02-05T13:41:38.709Z,37.85
2023-02-05T13:44:36.049Z,37.78
2023-02-05T13:47:24.753Z,37.58
2023-02-05T13:50:25.650Z,37.46
2023-02-05T13:53:11.360Z,37.27
2023-02-05T13:56:04.922Z,37.16
2023-02-05T13:58:38.359Z,37.07
2023-02-05T14:01:08.698Z,37.01
2023-02-05T14:03:39.441Z,36.37
2023-02-05T14:06:22.974Z,36.20
2023-02-05T14:08:58.145Z,36.02
2023-02-05T14:11:28.070Z,35.93
2023-02-05T14:14:24.286Z,35.57
2023-02-05T14:16:53.919Z,35.61
2023-02-05T14:19:25.754Z,35.41
2023-02-05T14:22:12.831Z,35.11
2023-02-05T14:24:46.661Z,35.40
2023-02-05T14:27:55.410Z,35.14
2023-02-05T14:30:49.446Z,35.33
2023-02-05T14:33:38.297Z,35.33
2023-02-05T14:36:33.214Z,35.36
2023-02-05T14:39:08.204Z,35.61
2023-02-05T14:41:50.766Z,36.80
2023-02-05T14:44:25.088Z,38.11
2023-02-05T14:47:04.221Z,38.00
2023-02-05T14:49:41.538Z,37.96
2023-02-05T14:52:22.985Z,37.47
2023-02-05T14:54:57.403Z,37.24
2023-02-05T14:57:29.407Z,36.80
2023-02-05T15:00:01.575Z,35.06
2023-02-05T15:03:11.100Z,34.05
2023-02-05T15:05:43.322Z,33.29
2023-02-05T15:08:17.582Z,31.86
2023-02-05T15:10:50.501Z,30.91
2023-02-05T15:13:19.835Z,29.67
2023-02-05T15:16:23.657Z,28.31
2023-02-05T15:18:55.143Z,28.43
2023-02-05T15:21:29.736Z,26.94
2023-02-05T15:24:02.702Z,26.46
2023-02-05T15:26:40.977Z,26.83
2023-02-05T15:29:14.624Z,26.84
2023-02-05T15:31:47.627Z,27.11
2023-02-05T15:34:31.737Z,27.56
2023-02-05T15:37:06.478Z,27.89
2023-02-05T15:39:41.591Z,28.56
2023-02-05T15:42:17.453Z,28.73
2023-02-05T15:44:45.443Z,29.13
2023-02-05T15:47:20.858Z,29.23
2023-02-05T15:49:52.212Z,29.82
2023-02-05T15:52:23.567Z,29.77
2023-02-05T15:54:52.990Z,29.90
2023-02-05T15:57:25.485Z,30.09
2023-02-05T15:59:54.560Z,30.39
2023-02-05T16:02:26.692Z,30.60
2023-02-05T16:04:57.478Z,31.01
2023-02-05T16:07:27.761Z,31.36
2023-02-05T16:09:58.033Z,31.36
2023-02-05T16:12:26.076Z,31.53
2023-02-05T16:15:05.041Z,31.92
2023-02-05T16:17:40.212Z,32.16
2023-02-05T16:20:26.785Z,32.53
2023-02-05T16:22:58.801Z,32.43
2023-02-05T16:25:42.374Z,32.59
2023-02-05T16:28:17.016Z,32.39
2023-02-05T16:30:49.273Z,32.21
2023-02-05T16:33:28.478Z,32.24
2023-02-05T16:35:58.309Z,32.39
2023-02-05T16:38:28.344Z,32.50
2023-02-05T16:41:02.539Z,32.40
2023-02-05T16:43:36.357Z,32.59
2023-02-05T16:46:26.949Z,33.06
2023-02-05T16:48:59.512Z,32.66
2023-02-05T16:51:33.145Z,32.72
2023-02-05T16:54:03.465Z,32.72
2023-02-05T16:56:34.700Z,32.82
2023-02-05T16:59:06.416Z,32.73
2023-02-05T17:01:39.339Z,33.01
2023-02-05T17:04:26.717Z,32.94
2023-02-05T17:06:57.179Z,33.51
2023-02-05T17:09:34.068Z,33.70
2023-02-05T17:12:28.130Z,33.95
2023-02-05T17:14:58.689Z,34.03
2023-02-05T17:17:27.804Z,34.28
2023-02-05T17:20:19.135Z,34.38
2023-02-05T17:23:08.975Z,34.73
2023-02-05T17:25:39.332Z,34.66
2023-02-05T17:28:09.619Z,35.05
2023-02-05T17:30:38.149Z,35.22
2023-02-05T17:33:08.032Z,35.66
2023-02-05T17:35:37.513Z,35.85
2023-02-05T17:38:05.507Z,35.96
2023-02-05T17:40:34.435Z,35.93
2023-02-05T17:43:03.120Z,36.48
2023-02-05T17:45:35.491Z,36.69
2023-02-05T17:48:04.229Z,36.79
2023-02-05T17:50:34.817Z,36.94
2023-02-05T17:53:07.699Z,37.68
2023-02-05T17:55:36.101Z,37.26
2023-02-05T17:58:06.164Z,37.65
2023-02-05T18:00:35.471Z,37.86
2023-02-05T18:03:05.165Z,37.97
2023-02-05T18:05:34.812Z,38.27
2023-02-05T18:08:26.178Z,38.44
2023-02-05T18:10:58.857Z,38.55
2023-02-05T18:13:28.890Z,39.03
2023-02-05T18:16:01.966Z,38.92
2023-02-05T18:18:37.527Z,39.26
2023-02-05T18:21:06.302Z,39.73
2023-02-05T18:23:38.177Z,39.92
2023-02-05T18:26:10.023Z,39.74
2023-02-05T18:28:39.196Z,39.73
2023-02-05T18:31:10.586Z,40.04
2023-02-05T18:33:39.362Z,40.18
2023-02-05T18:36:09.692Z,40.24
2023-02-05T18:38:38.921Z,40.42
2023-02-05T18:41:12.049Z,40.61
2023-02-05T18:43:40.446Z,40.58
2023-02-05T18:46:09.149Z,40.85
2023-02-05T18:48:37.450Z,41.21
2023-02-05T18:51:06.431Z,41.43
2023-02-05T18:53:34.963Z,41.19
2023-02-05T18:56:04.652Z,41.62
2023-02-05T18:58:36.046Z,41.37
2023-02-05T19:01:09.746Z,41.57
2023-02-05T19:03:40.895Z,41.61
2023-02-05T19:06:09.750Z,41.84
2023-02-05T19:08:38.532Z,42.03
2023-02-05T19:11:11.597Z,42.16
2023-02-05T19:13:41.311Z,41.94
2023-02-05T19:16:12.822Z,42.11
2023-02-05T19:18:42.412Z,42.15
2023-02-05T19:21:13.606Z,42.16
2023-02-05T19:23:43.443Z,42.28
2023-02-05T19:26:15.466Z,42.54
2023-02-05T19:28:47.373Z,42.46
2023-02-05T19:31:16.722Z,42.46
2023-02-05T19:33:45.595Z,42.52
2023-02-05T19:36:15.054Z,42.25
2023-02-05T19:38:43.446Z,42.29
2023-02-05T19:41:14.580Z,42.38
2023-02-05T19:43:51.712Z,42.63
2023-02-05T19:46:22.382Z,42.97
2023-02-05T19:48:52.412Z,42.75
2023-02-05T19:51:21.068Z,42.62
2023-02-05T19:53:49.591Z,43.18
2023-02-05T19:56:20.063Z,42.85
2023-02-05T19:58:51.533Z,43.12
2023-02-05T20:01:23.776Z,42.70
2023-02-05T20:03:52.025Z,42.73
2023-02-05T20:06:21.593Z,42.78
2023-02-05T20:08:49.694Z,43.24
2023-02-05T20:11:18.965Z,42.82
2023-02-05T20:13:47.480Z,42.63
2023-02-05T20:16:19.114Z,43.04
2023-02-05T20:18:48.418Z,42.93
2023-02-05T20:21:19.285Z,43.10
2023-02-05T20:23:47.789Z,43.09
2023-02-05T20:26:19.115Z,43.36
2023-02-05T20:29:06.373Z,43.19
2023-02-05T20:31:41.625Z,43.07
2023-02-05T20:34:17.969Z,43.22
2023-02-05T20:36:47.720Z,43.20
2023-02-05T20:39:17.276Z,43.17
2023-02-05T20:41:48.234Z,43.22
2023-02-05T20:44:17.346Z,43.38
2023-02-05T20:46:47.106Z,43.50
2023-02-05T20:49:16.417Z,43.35
2023-02-05T20:51:44.965Z,43.66
2023-02-05T20:54:13.746Z,43.54
2023-02-05T20:56:42.331Z,43.58
2023-02-05T20:59:11.989Z,43.59
2023-02-05T21:01:41.780Z,43.72
2023-02-05T21:04:12.806Z,43.74
2023-02-05T21:06:46.031Z,43.87
2023-02-05T21:09:14.620Z,43.92
2023-02-05T21:11:45.932Z,43.87
2023-02-05T21:14:18.252Z,44.01
2023-02-05T21:16:47.864Z,43.80
2023-02-05T21:19:28.373Z,43.71
2023-02-05T21:22:05.361Z,43.88
2023-02-05T21:24:36.916Z,43.80
2023-02-05T21:27:05.848Z,43.66
2023-02-05T21:29:35.886Z,44.01
2023-02-05T21:34:53.941Z,43.98
2023-02-05T21:37:24.195Z,43.99
2023-02-05T21:40:00.741Z,44.13
2023-02-05T21:42:36.063Z,43.76
2023-02-05T21:45:06.214Z,44.03
2023-02-05T21:47:36.505Z,44.04
2023-02-05T21:50:11.350Z,44.35
2023-02-05T21:52:42.605Z,44.18
2023-02-05T21:55:12.396Z,44.17
2023-02-05T21:57:43.288Z,44.23
2023-02-05T22:00:14.229Z,44.11
2023-02-05T22:02:42.494Z,43.94
2023-02-05T22:05:22.328Z,44.34
2023-02-05T22:07:55.085Z,44.26
2023-02-05T22:10:23.212Z,44.37
2023-02-05T22:12:52.335Z,44.32
2023-02-05T22:15:20.730Z,44.35
2023-02-05T22:17:49.002Z,44.26
2023-02-05T22:20:22.394Z,44.27
2023-02-05T22:22:50.678Z,44.55
2023-02-05T22:25:19.150Z,44.44
2023-02-05T22:27:47.326Z,44.79
2023-02-05T22:30:17.545Z,44.92
2023-02-05T22:32:48.258Z,45.03
2023-02-05T22:35:23.311Z,44.74
2023-02-05T22:37:52.519Z,44.71
2023-02-05T22:40:24.003Z,44.82
2023-02-05T22:42:52.084Z,45.35
2023-02-05T22:45:20.398Z,44.98
2023-02-05T22:47:48.346Z,45.06
2023-02-05T22:50:16.928Z,45.37
2023-02-05T22:52:46.492Z,45.21
2023-02-05T22:55:14.432Z,45.10
2023-02-05T22:57:42.421Z,45.11
2023-02-05T23:00:13.181Z,44.81
2023-02-05T23:02:41.460Z,45.20
2023-02-05T23:05:10.446Z,45.24
2023-02-05T23:07:38.961Z,45.36
2023-02-05T23:10:09.958Z,45.24
2023-02-05T23:12:38.105Z,45.20
2023-02-05T23:15:06.797Z,45.43
2023-02-05T23:17:36.159Z,45.46
2023-02-05T23:20:04.578Z,45.65
2023-02-05T23:22:32.785Z,45.68
2023-02-05T23:25:01.693Z,45.60
2023-02-05T23:27:33.719Z,45.86
2023-02-05T23:30:01.815Z,45.52
2023-02-05T23:32:30.106Z,45.59
2023-02-05T23:34:58.156Z,45.82
2023-02-05T23:37:26.140Z,45.60
2023-02-05T23:39:54.224Z,46.05
2023-02-05T23:42:22.147Z,46.00
2023-02-05T23:44:51.565Z,46.11
2023-02-05T23:47:19.704Z,46.00
2023-02-05T23:49:47.661Z,46.22
2023-02-05T23:52:15.575Z,46.51
2023-02-05T23:54:43.563Z,46.18
2023-02-05T23:57:11.576Z,46.08
2023-02-05T23:59:39.525Z,46.42
